createdAt,value
2019-03-15T00:02:16.339Z,67.37
2019-03-15T00:04:49.772Z,67.14
2019-03-15T00:07:23.273Z,66.86
2019-03-15T00:09:56.629Z,66.44
2019-03-15T00:12:29.964Z,66.62
2019-03-15T00:15:04.347Z,66.05
2019-03-15T00:17:37.747Z,66.21
2019-03-15T00:20:11.256Z,66.69
2019-03-15T00:22:44.665Z,66.51
2019-03-15T00:25:18.151Z,65.64
2019-03-15T00:27:51.494Z,66.44
2019-03-15T00:30:24.930Z,66.54
2019-03-15T00:32:58.631Z,65.44
2019-03-15T00:35:32.123Z,66.50
2019-03-15T00:38:05.522Z,66.43
2019-03-15T00:40:38.969Z,66.46
2019-03-15T00:43:12.347Z,66.49
2019-03-15T00:45:45.763Z,66.59
2019-03-15T00:48:19.133Z,66.67
2019-03-15T00:50:52.471Z,66.74
2019-03-15T00:53:26.022Z,66.28
2019-03-15T00:55:59.362Z,66.68
2019-03-15T00:58:32.816Z,66.96
2019-03-15T01:01:06.294Z,66.64
2019-03-15T01:03:39.719Z,66.62
2019-03-15T01:06:13.093Z,66.28
2019-03-15T01:08:46.456Z,66.31
2019-03-15T01:11:19.803Z,66.47
2019-03-15T01:13:53.196Z,66.63
2019-03-15T01:16:26.535Z,64.99
2019-03-15T01:18:59.904Z,66.71
2019-03-15T01:21:33.384Z,66.62
2019-03-15T01:24:06.828Z,66.61
2019-03-15T01:26:40.224Z,66.74
2019-03-15T01:29:13.603Z,66.37
2019-03-15T01:31:46.957Z,67.08
2019-03-15T01:34:20.363Z,65.83
2019-03-15T01:36:53.716Z,65.89
2019-03-15T01:39:27.085Z,66.78
2019-03-15T01:42:00.486Z,66.92
2019-03-15T01:44:33.945Z,65.98
2019-03-15T01:47:07.289Z,66.74
2019-03-15T01:49:40.736Z,66.74
2019-03-15T01:52:14.140Z,66.78
2019-03-15T01:54:47.606Z,66.67
2019-03-15T01:57:21.007Z,67.01
2019-03-15T01:59:54.415Z,66.74
2019-03-15T02:02:27.904Z,66.85
2019-03-15T02:05:01.306Z,66.82
2019-03-15T02:07:34.817Z,66.77
2019-03-15T02:10:09.158Z,66.71
2019-03-15T02:12:42.614Z,66.54
2019-03-15T02:15:16.038Z,67.07
2019-03-15T02:17:49.412Z,66.92
2019-03-15T02:20:22.848Z,67.04
2019-03-15T02:22:56.191Z,66.50
2019-03-15T02:25:29.577Z,66.11
2019-03-15T02:28:02.939Z,66.75
2019-03-15T02:30:36.483Z,66.53
2019-03-15T02:33:09.884Z,66.48
2019-03-15T02:35:43.255Z,66.48
2019-03-15T02:38:16.594Z,66.37
2019-03-15T02:40:49.964Z,66.13
2019-03-15T02:43:23.296Z,66.04
2019-03-15T02:45:56.817Z,66.01
2019-03-15T02:48:30.152Z,66.33
2019-03-15T02:51:06.477Z,66.47
2019-03-15T02:53:39.787Z,65.84
2019-03-15T02:56:13.133Z,66.44
2019-03-15T02:58:46.465Z,66.51
2019-03-15T03:01:19.814Z,66.06
2019-03-15T03:03:53.217Z,66.68
2019-03-15T03:06:28.055Z,66.11
2019-03-15T03:09:01.770Z,66.85
2019-03-15T03:11:35.115Z,67.11
2019-03-15T03:14:08.522Z,66.73
2019-03-15T03:16:41.866Z,66.10
2019-03-15T03:19:15.181Z,67.03
2019-03-15T03:21:48.530Z,66.13
2019-03-15T03:24:22.211Z,66.63
2019-03-15T03:26:55.653Z,66.50
2019-03-15T03:29:29.039Z,66.54
2019-03-15T03:32:02.439Z,66.30
2019-03-15T03:34:35.866Z,64.21
2019-03-15T03:37:09.180Z,66.01
2019-03-15T03:39:42.502Z,64.97
2019-03-15T03:42:16.024Z,66.12
2019-03-15T03:44:49.450Z,66.09
2019-03-15T03:47:22.866Z,66.03
2019-03-15T03:49:56.180Z,65.79
2019-03-15T03:52:29.598Z,66.32
2019-03-15T03:55:03.023Z,66.14
2019-03-15T03:57:36.704Z,65.87
2019-03-15T04:00:14.882Z,65.81
2019-03-15T04:02:48.293Z,66.01
2019-03-15T04:05:21.635Z,65.76
2019-03-15T04:07:55.011Z,66.00
2019-03-15T04:10:28.425Z,65.43
2019-03-15T04:13:01.747Z,65.73
2019-03-15T04:15:35.173Z,65.67
2019-03-15T04:18:08.483Z,65.59
2019-03-15T04:20:42.481Z,65.83
2019-03-15T04:23:15.878Z,65.98
2019-03-15T04:25:49.222Z,65.96
2019-03-15T04:28:22.542Z,66.20
2019-03-15T04:30:55.895Z,65.80
2019-03-15T04:33:29.231Z,65.83
2019-03-15T04:36:02.579Z,65.70
2019-03-15T04:38:35.882Z,65.76
2019-03-15T04:41:09.240Z,65.37
2019-03-15T04:43:42.564Z,65.73
2019-03-15T04:46:15.904Z,65.56
2019-03-15T04:48:49.243Z,65.76
2019-03-15T04:51:22.650Z,65.88
2019-03-15T04:53:55.927Z,65.88
2019-03-15T04:56:29.287Z,65.94
2019-03-15T04:59:02.611Z,65.91
2019-03-15T05:01:36.122Z,66.00
2019-03-15T05:04:09.931Z,66.08
2019-03-15T05:06:43.280Z,65.99
2019-03-15T05:09:16.675Z,65.96
2019-03-15T05:11:50.031Z,65.84
2019-03-15T05:14:23.388Z,66.10
2019-03-15T05:16:56.817Z,66.34
2019-03-15T05:19:30.183Z,66.55
2019-03-15T05:22:03.577Z,66.46
2019-03-15T05:24:36.926Z,66.58
2019-03-15T05:27:10.370Z,66.48
2019-03-15T05:29:43.740Z,66.44
2019-03-15T05:32:17.078Z,66.38
2019-03-15T05:34:50.392Z,66.25
2019-03-15T05:37:23.780Z,64.37
2019-03-15T05:39:57.146Z,66.27
2019-03-15T05:42:30.519Z,66.34
2019-03-15T05:45:04.879Z,66.22
2019-03-15T05:47:38.291Z,66.23
2019-03-15T05:50:12.920Z,65.95
2019-03-15T05:52:46.277Z,66.21
2019-03-15T05:55:19.601Z,66.13
2019-03-15T05:57:52.944Z,66.13
2019-03-15T06:00:26.258Z,66.03
2019-03-15T06:02:59.631Z,66.02
2019-03-15T06:05:32.964Z,66.05
2019-03-15T06:08:06.348Z,65.93
2019-03-15T06:10:39.668Z,66.00
2019-03-15T06:13:13.049Z,66.00
2019-03-15T06:15:46.368Z,65.86
2019-03-15T06:18:19.708Z,65.74
2019-03-15T06:20:53.026Z,65.71
2019-03-15T06:23:26.367Z,65.75
2019-03-15T06:25:59.716Z,65.59
2019-03-15T06:28:33.202Z,65.88
2019-03-15T06:31:06.643Z,65.79
2019-03-15T06:33:39.986Z,65.65
2019-03-15T06:36:13.320Z,65.65
2019-03-15T06:38:46.741Z,65.51
2019-03-15T06:41:20.083Z,65.19
2019-03-15T06:43:53.514Z,65.25
2019-03-15T06:46:26.832Z,65.34
2019-03-15T06:49:00.187Z,65.44
2019-03-15T06:51:33.596Z,65.34
2019-03-15T06:54:11.713Z,65.43
2019-03-15T06:56:42.284Z,64.77
2019-03-15T06:59:15.674Z,65.31
2019-03-15T07:01:49.000Z,65.20
2019-03-15T07:04:23.987Z,62.97
2019-03-15T07:06:57.311Z,65.24
2019-03-15T07:09:31.071Z,65.09
2019-03-15T07:12:09.140Z,64.89
2019-03-15T07:14:39.517Z,64.82
2019-03-15T07:17:12.859Z,64.48
2019-03-15T07:19:46.189Z,64.76
2019-03-15T07:22:20.120Z,64.71
2019-03-15T07:24:53.593Z,64.59
2019-03-15T07:27:26.933Z,64.65
2019-03-15T07:30:00.552Z,63.98
2019-03-15T07:32:33.987Z,64.57
2019-03-15T07:35:07.672Z,64.75
2019-03-15T07:37:41.095Z,64.36
2019-03-15T07:40:14.416Z,64.61
2019-03-15T07:42:47.855Z,64.67
2019-03-15T07:45:21.168Z,64.90
2019-03-15T07:47:54.515Z,64.52
2019-03-15T07:50:27.828Z,63.57
2019-03-15T07:53:01.195Z,64.24
2019-03-15T07:55:34.534Z,63.72
2019-03-15T07:58:07.911Z,63.75
2019-03-15T08:00:41.232Z,63.74
2019-03-15T08:03:14.585Z,63.39
2019-03-15T08:05:47.972Z,63.62
2019-03-15T08:08:21.353Z,63.31
2019-03-15T08:10:55.187Z,63.64
2019-03-15T08:13:28.573Z,63.23
2019-03-15T08:16:01.964Z,63.09
2019-03-15T08:18:35.403Z,63.35
2019-03-15T08:21:08.788Z,62.95
2019-03-15T08:23:42.154Z,63.38
2019-03-15T08:26:15.476Z,63.25
2019-03-15T08:28:48.845Z,62.99
2019-03-15T08:31:23.457Z,63.46
2019-03-15T08:33:56.941Z,62.94
2019-03-15T08:36:30.321Z,63.01
2019-03-15T08:39:04.742Z,62.93
2019-03-15T08:41:38.094Z,62.81
2019-03-15T08:44:11.440Z,62.76
2019-03-15T08:46:44.764Z,62.04
2019-03-15T08:49:18.160Z,62.51
2019-03-15T08:52:03.294Z,61.75
2019-03-15T08:54:26.634Z,62.35
2019-03-15T08:56:59.975Z,62.52
2019-03-15T08:59:33.328Z,62.59
2019-03-15T09:02:06.651Z,62.89
2019-03-15T09:04:40.016Z,62.95
2019-03-15T09:07:13.335Z,62.97
2019-03-15T09:09:46.708Z,62.05
2019-03-15T09:12:20.024Z,62.20
2019-03-15T09:14:53.378Z,62.23
2019-03-15T09:17:26.695Z,62.32
2019-03-15T09:20:00.040Z,61.97
2019-03-15T09:22:33.360Z,62.25
2019-03-15T09:25:19.447Z,61.71
2019-03-15T09:27:46.465Z,60.81
2019-03-15T09:30:24.171Z,59.09
2019-03-15T09:32:54.877Z,61.34
2019-03-15T09:35:28.305Z,61.45
2019-03-15T09:38:01.663Z,60.88
2019-03-15T09:40:35.050Z,60.51
2019-03-15T09:43:08.337Z,59.71
2019-03-15T09:45:41.682Z,59.98
2019-03-15T09:48:15.002Z,59.76
2019-03-15T09:50:51.536Z,59.92
2019-03-15T09:53:23.392Z,57.28
2019-03-15T09:55:57.625Z,59.76
2019-03-15T09:58:30.943Z,60.06
2019-03-15T10:01:04.605Z,59.67
2019-03-15T10:03:38.390Z,59.70
2019-03-15T10:06:15.692Z,59.27
2019-03-15T10:08:46.852Z,58.56
2019-03-15T10:11:20.159Z,59.14
2019-03-15T10:13:53.512Z,58.71
2019-03-15T10:16:26.870Z,59.20
2019-03-15T10:19:00.217Z,60.02
2019-03-15T10:21:33.600Z,59.91
2019-03-15T10:24:06.958Z,60.89
2019-03-15T10:26:40.272Z,61.42
2019-03-15T10:29:15.716Z,61.92
2019-03-15T10:31:48.739Z,62.43
2019-03-15T10:34:22.223Z,62.58
2019-03-15T10:36:55.526Z,62.55
2019-03-15T10:39:28.878Z,63.02
2019-03-15T10:42:02.219Z,63.16
2019-03-15T10:44:35.641Z,63.80
2019-03-15T10:47:08.962Z,62.48
2019-03-15T10:49:42.507Z,63.38
2019-03-15T10:52:15.961Z,62.98
2019-03-15T10:54:49.539Z,63.28
2019-03-15T10:57:22.868Z,63.13
2019-03-15T10:59:56.227Z,63.13
2019-03-15T11:02:29.551Z,62.56
2019-03-15T11:05:02.918Z,63.21
2019-03-15T11:07:36.247Z,63.45
2019-03-15T11:10:11.121Z,63.82
2019-03-15T11:12:44.480Z,63.93
2019-03-15T11:15:17.907Z,64.10
2019-03-15T11:17:51.276Z,64.51
2019-03-15T11:20:24.690Z,64.34
2019-03-15T11:22:58.015Z,65.13
2019-03-15T11:25:31.385Z,64.92
2019-03-15T11:28:04.704Z,64.57
2019-03-15T11:30:38.054Z,64.61
2019-03-15T11:33:11.369Z,64.55
2019-03-15T11:35:44.727Z,64.69
2019-03-15T11:38:18.082Z,64.88
2019-03-15T11:40:51.418Z,65.07
2019-03-15T11:43:24.748Z,65.04
2019-03-15T11:45:58.101Z,65.43
2019-03-15T11:48:31.461Z,65.18
2019-03-15T11:51:04.814Z,65.13
2019-03-15T11:53:38.131Z,65.31
2019-03-15T11:56:11.638Z,65.17
2019-03-15T11:58:44.946Z,65.75
2019-03-15T12:01:18.313Z,65.49
2019-03-15T12:03:53.253Z,65.79
2019-03-15T12:06:27.066Z,65.69
2019-03-15T12:09:00.351Z,65.67
2019-03-15T12:11:33.804Z,65.71
2019-03-15T12:14:07.190Z,66.29
2019-03-15T12:16:40.594Z,66.11
2019-03-15T12:19:13.918Z,65.99
2019-03-15T12:21:47.294Z,66.69
2019-03-15T12:24:20.725Z,66.60
2019-03-15T12:26:54.330Z,67.16
2019-03-15T12:29:27.828Z,67.53
2019-03-15T12:32:01.171Z,67.35
2019-03-15T12:34:34.516Z,67.13
2019-03-15T12:37:07.949Z,67.09
2019-03-15T12:39:41.281Z,67.08
2019-03-15T12:42:14.695Z,67.04
2019-03-15T12:44:48.025Z,67.66
2019-03-15T12:47:21.382Z,67.13
2019-03-15T12:49:54.695Z,66.91
2019-03-15T12:52:28.176Z,67.27
2019-03-15T12:55:03.504Z,67.59
2019-03-15T12:57:37.404Z,67.73
2019-03-15T13:00:14.343Z,67.30
2019-03-15T13:02:48.046Z,67.94
2019-03-15T13:05:21.519Z,67.37
2019-03-15T13:07:54.841Z,67.01
2019-03-15T13:10:28.195Z,67.08
2019-03-15T13:13:01.754Z,67.16
2019-03-15T13:15:35.116Z,67.78
2019-03-15T13:18:08.427Z,67.33
2019-03-15T13:20:42.341Z,68.06
2019-03-15T13:23:15.653Z,67.81
2019-03-15T13:25:49.369Z,68.01
2019-03-15T13:28:22.838Z,67.85
2019-03-15T13:30:56.261Z,67.95
2019-03-15T13:33:29.583Z,67.77
2019-03-15T13:36:02.937Z,67.66
2019-03-15T13:38:36.293Z,67.15
2019-03-15T13:41:09.641Z,67.66
2019-03-15T13:43:42.966Z,67.62
2019-03-15T13:46:16.334Z,67.70
2019-03-15T13:48:49.643Z,67.82
2019-03-15T13:51:23.062Z,68.04
2019-03-15T13:53:56.452Z,68.35
2019-03-15T13:56:29.804Z,69.03
2019-03-15T13:59:03.205Z,68.55
2019-03-15T14:01:36.535Z,68.32
2019-03-15T14:04:10.001Z,68.03
2019-03-15T14:06:43.373Z,68.12
2019-03-15T14:09:16.698Z,68.18
2019-03-15T14:11:50.258Z,68.51
2019-03-15T14:14:23.588Z,68.48
2019-03-15T14:16:56.948Z,67.73
2019-03-15T14:19:30.262Z,68.32
2019-03-15T14:22:05.981Z,68.05
2019-03-15T14:24:38.654Z,67.84
2019-03-15T14:27:12.039Z,66.89
2019-03-15T14:29:45.345Z,67.36
2019-03-15T14:32:18.714Z,67.86
2019-03-15T14:34:52.103Z,66.92
2019-03-15T14:37:25.527Z,66.24
2019-03-15T14:39:58.893Z,66.14
2019-03-15T14:42:32.298Z,65.99
2019-03-15T14:45:08.809Z,65.81
2019-03-15T14:47:42.154Z,66.06
2019-03-15T14:50:15.565Z,66.29
2019-03-15T14:52:49.100Z,66.51
2019-03-15T14:55:22.409Z,65.71
2019-03-15T14:57:55.745Z,66.22
2019-03-15T15:00:29.340Z,65.89
2019-03-15T15:03:02.768Z,66.45
2019-03-15T15:05:36.182Z,66.50
2019-03-15T15:08:09.527Z,65.84
2019-03-15T15:10:42.879Z,65.54
2019-03-15T15:13:16.220Z,66.14
2019-03-15T15:15:49.568Z,66.24
2019-03-15T15:18:22.928Z,66.44
2019-03-15T15:20:56.242Z,66.40
2019-03-15T15:23:29.627Z,66.51
2019-03-15T15:26:02.958Z,66.40
2019-03-15T15:28:36.294Z,65.94
2019-03-15T15:31:09.622Z,66.22
2019-03-15T15:33:43.030Z,65.80
2019-03-15T15:36:16.413Z,65.66
2019-03-15T15:38:49.768Z,65.51
2019-03-15T15:41:23.097Z,65.21
2019-03-15T15:43:56.439Z,65.07
2019-03-15T15:46:29.754Z,64.45
2019-03-15T15:49:03.100Z,65.10
2019-03-15T15:51:36.449Z,64.29
2019-03-15T15:54:09.805Z,64.55
2019-03-15T15:56:43.129Z,63.87
2019-03-15T15:59:16.469Z,63.83
2019-03-15T16:01:49.790Z,63.55
2019-03-15T16:04:23.140Z,62.07
2019-03-15T16:06:56.452Z,63.17
2019-03-15T16:09:29.829Z,62.96
2019-03-15T16:12:03.144Z,62.04
2019-03-15T16:14:36.483Z,62.01
2019-03-15T16:17:09.829Z,61.96
2019-03-15T16:19:43.171Z,61.53
2019-03-15T16:22:16.486Z,60.58
2019-03-15T16:24:49.832Z,60.62
2019-03-15T16:27:23.245Z,60.57
2019-03-15T16:29:56.550Z,61.01
2019-03-15T16:32:29.909Z,59.44
2019-03-15T16:35:03.384Z,59.21
2019-03-15T16:37:36.735Z,59.03
2019-03-15T16:40:11.493Z,57.87
2019-03-15T16:42:44.914Z,57.56
2019-03-15T16:45:29.332Z,58.46
2019-03-15T16:48:02.682Z,57.73
2019-03-15T16:50:36.016Z,57.61
2019-03-15T16:53:09.357Z,56.33
2019-03-15T16:55:42.706Z,56.32
2019-03-15T16:58:16.055Z,55.22
2019-03-15T17:00:49.396Z,56.02
2019-03-15T17:03:22.898Z,54.77
2019-03-15T17:05:56.204Z,55.14
2019-03-15T17:08:29.582Z,54.84
2019-03-15T17:11:02.979Z,55.94
2019-03-15T17:13:36.327Z,56.06
2019-03-15T17:16:09.831Z,57.23
2019-03-15T17:18:43.154Z,56.62
2019-03-15T17:21:16.468Z,53.22
2019-03-15T17:23:49.891Z,56.39
2019-03-15T17:26:23.210Z,56.52
2019-03-15T17:28:58.918Z,53.99
2019-03-15T17:31:31.579Z,54.73
2019-03-15T17:34:05.003Z,55.50
2019-03-15T17:36:38.353Z,55.58
2019-03-15T17:39:11.694Z,56.23
2019-03-15T17:41:45.119Z,56.76
2019-03-15T17:44:18.423Z,56.97
2019-03-15T17:46:51.834Z,56.65
2019-03-15T17:49:25.199Z,55.76
2019-03-15T17:51:58.598Z,56.72
2019-03-15T17:54:31.942Z,56.29
2019-03-15T17:57:05.382Z,57.06
2019-03-15T17:59:38.713Z,56.82
2019-03-15T18:02:12.159Z,56.07
2019-03-15T18:04:45.594Z,55.48
2019-03-15T18:07:18.918Z,54.76
2019-03-15T18:09:52.255Z,55.74
2019-03-15T18:12:25.641Z,55.22
2019-03-15T18:14:58.987Z,53.00
2019-03-15T18:17:32.299Z,53.59
2019-03-15T18:20:08.258Z,54.08
2019-03-15T18:22:41.595Z,51.20
2019-03-15T18:25:15.025Z,52.89
2019-03-15T18:27:48.705Z,53.38
2019-03-15T18:30:22.045Z,52.79
2019-03-15T18:32:55.369Z,53.19
2019-03-15T18:35:34.017Z,53.44
2019-03-15T18:38:03.779Z,51.46
2019-03-15T18:40:38.872Z,53.11
2019-03-15T18:43:12.236Z,53.62
2019-03-15T18:45:45.620Z,53.05
2019-03-15T18:48:19.021Z,53.39
2019-03-15T18:50:52.445Z,53.32
2019-03-15T18:53:25.764Z,53.65
2019-03-15T18:55:59.116Z,53.86
2019-03-15T18:58:32.433Z,54.27
2019-03-15T19:01:05.853Z,53.53
2019-03-15T19:03:39.242Z,54.49
2019-03-15T19:06:12.595Z,51.83
2019-03-15T19:08:45.910Z,53.74
2019-03-15T19:11:19.271Z,50.67
2019-03-15T19:13:52.696Z,52.89
2019-03-15T19:16:26.025Z,53.31
2019-03-15T19:18:59.519Z,53.79
2019-03-15T19:21:32.835Z,52.99
2019-03-15T19:24:06.185Z,53.08
2019-03-15T19:26:39.589Z,52.99
2019-03-15T19:29:12.923Z,52.45
2019-03-15T19:31:46.249Z,52.19
2019-03-15T19:34:19.587Z,52.61
2019-03-15T19:36:52.905Z,52.65
2019-03-15T19:39:26.285Z,53.14
2019-03-15T19:41:59.601Z,50.35
2019-03-15T19:44:32.973Z,52.79
2019-03-15T19:47:06.417Z,52.97
2019-03-15T19:49:39.775Z,54.00
2019-03-15T19:52:13.111Z,53.84
2019-03-15T19:54:59.514Z,52.35
2019-03-15T19:57:21.629Z,53.81
2019-03-15T20:00:06.968Z,52.74
2019-03-15T20:02:30.124Z,52.62
2019-03-15T20:05:04.167Z,52.93
2019-03-15T20:07:38.134Z,53.17
2019-03-15T20:10:16.111Z,49.15
2019-03-15T20:12:48.242Z,53.35
2019-03-15T20:15:21.627Z,52.69
2019-03-15T20:17:54.945Z,51.52
2019-03-15T20:20:28.367Z,52.89
2019-03-15T20:23:01.717Z,52.75
2019-03-15T20:25:35.133Z,52.99
2019-03-15T20:28:08.513Z,51.71
2019-03-15T20:30:51.318Z,51.79
2019-03-15T20:33:16.894Z,50.89
2019-03-15T20:35:52.039Z,52.84
2019-03-15T20:38:25.298Z,53.03
2019-03-15T20:40:58.799Z,52.73
2019-03-15T20:43:32.180Z,52.84
2019-03-15T20:46:05.559Z,51.25
2019-03-15T20:48:38.886Z,53.18
2019-03-15T20:51:12.358Z,52.91
2019-03-15T20:53:45.668Z,52.85
2019-03-15T20:56:19.038Z,53.33
2019-03-15T20:58:52.380Z,51.91
2019-03-15T21:01:25.799Z,51.71
2019-03-15T21:03:59.115Z,52.33
2019-03-15T21:06:32.536Z,50.94
2019-03-15T21:09:07.391Z,51.90
2019-03-15T21:11:40.753Z,50.13
2019-03-15T21:14:14.073Z,51.78
2019-03-15T21:16:47.418Z,52.90
2019-03-15T21:19:20.745Z,53.15
2019-03-15T21:21:56.331Z,52.00
2019-03-15T21:24:29.185Z,53.13
2019-03-15T21:27:02.609Z,52.51
2019-03-15T21:29:35.939Z,52.24
2019-03-15T21:32:09.407Z,52.19
2019-03-15T21:34:42.888Z,52.47
2019-03-15T21:37:16.245Z,51.21
2019-03-15T21:39:49.736Z,53.23
2019-03-15T21:42:23.052Z,52.82
2019-03-15T21:44:56.424Z,52.52
2019-03-15T21:47:29.737Z,53.09
2019-03-15T21:50:03.982Z,53.09
2019-03-15T21:52:37.289Z,53.73
2019-03-15T21:55:10.736Z,53.84
2019-03-15T21:57:44.041Z,53.44
2019-03-15T22:00:18.432Z,54.18
2019-03-15T22:02:51.755Z,53.95
2019-03-15T22:05:25.109Z,53.15
2019-03-15T22:07:58.464Z,54.23
2019-03-15T22:10:31.812Z,54.10
2019-03-15T22:13:05.165Z,54.16
2019-03-15T22:15:38.583Z,54.39
2019-03-15T22:18:11.954Z,54.38
2019-03-15T22:20:45.302Z,53.35
2019-03-15T22:23:18.633Z,53.70
2019-03-15T22:25:52.068Z,54.52
2019-03-15T22:28:25.383Z,55.11
2019-03-15T22:30:58.818Z,55.06
2019-03-15T22:33:32.134Z,54.96
2019-03-15T22:36:05.678Z,55.32
2019-03-15T22:38:38.988Z,55.52
2019-03-15T22:41:12.401Z,55.37
2019-03-15T22:43:45.720Z,55.82
2019-03-15T22:46:19.059Z,55.55
2019-03-15T22:48:52.397Z,55.99
2019-03-15T22:51:25.741Z,56.53
2019-03-15T22:53:59.170Z,56.30
2019-03-15T22:56:32.512Z,56.57
2019-03-15T22:59:05.824Z,56.43
2019-03-15T23:01:39.254Z,56.48
2019-03-15T23:04:12.580Z,56.52
2019-03-15T23:06:45.994Z,56.19
2019-03-15T23:09:19.331Z,56.14
2019-03-15T23:11:52.685Z,56.40
2019-03-15T23:14:25.999Z,56.59
2019-03-15T23:16:59.342Z,55.19
2019-03-15T23:19:32.719Z,56.24
2019-03-15T23:22:06.112Z,56.48
2019-03-15T23:24:39.797Z,56.63
2019-03-15T23:27:13.138Z,56.26
2019-03-15T23:29:46.749Z,56.50
2019-03-15T23:32:20.177Z,56.28
2019-03-15T23:34:54.052Z,56.39
2019-03-15T23:37:27.406Z,56.07
2019-03-15T23:40:00.721Z,56.41
2019-03-15T23:42:34.429Z,56.30
2019-03-15T23:45:09.680Z,56.36
2019-03-15T23:47:43.092Z,56.01
2019-03-15T23:50:16.471Z,55.21
2019-03-15T23:52:50.076Z,55.96
2019-03-15T23:55:23.775Z,56.09
2019-03-15T23:57:57.501Z,56.07
